createdAt,value
2022-10-10T00:02:38.033Z,6.62
2022-10-10T00:05:40.587Z,6.59
2022-10-10T00:08:42.385Z,6.58
2022-10-10T00:11:43.892Z,6.58
2022-10-10T00:14:45.446Z,6.57
2022-10-10T00:17:46.984Z,6.56
2022-10-10T00:20:51.777Z,6.55
2022-10-10T00:23:53.308Z,6.54
2022-10-10T00:26:54.891Z,6.53
2022-10-10T00:29:56.607Z,6.50
2022-10-10T00:32:59.574Z,6.45
2022-10-10T00:36:01.129Z,6.41
2022-10-10T00:39:02.675Z,6.37
2022-10-10T00:42:04.417Z,6.33
2022-10-10T00:45:29.015Z,6.29
2022-10-10T00:48:40.192Z,6.23
2022-10-10T00:51:43.765Z,6.17
2022-10-10T00:54:45.305Z,6.13
2022-10-10T00:57:47.376Z,6.10
2022-10-10T01:00:49.083Z,6.06
2022-10-10T01:03:50.753Z,6.02
2022-10-10T01:06:52.345Z,6.00
2022-10-10T01:09:56.369Z,5.98
2022-10-10T01:13:22.405Z,5.95
2022-10-10T01:16:36.502Z,5.92
2022-10-10T01:19:44.380Z,5.88
2022-10-10T01:23:22.905Z,5.83
2022-10-10T01:26:44.609Z,5.80
2022-10-10T01:29:59.977Z,5.78
2022-10-10T01:33:17.327Z,5.79
2022-10-10T01:36:32.690Z,5.74
2022-10-10T01:39:58.429Z,5.72
2022-10-10T01:43:04.148Z,5.70
2022-10-10T01:46:17.293Z,5.68
2022-10-10T01:49:19.319Z,5.67
2022-10-10T01:52:47.512Z,5.66
2022-10-10T01:56:09.887Z,5.65
2022-10-10T01:59:25.025Z,5.65
2022-10-10T02:02:39.555Z,5.65
2022-10-10T02:05:52.889Z,5.65
2022-10-10T02:09:00.176Z,5.64
2022-10-10T02:12:02.575Z,5.64
2022-10-10T02:15:12.956Z,5.65
2022-10-10T02:18:18.832Z,5.66
2022-10-10T02:21:21.673Z,5.67
2022-10-10T02:24:24.792Z,5.67
2022-10-10T02:27:26.697Z,5.67
2022-10-10T02:30:28.600Z,5.66
2022-10-10T02:33:47.605Z,5.65
2022-10-10T02:36:54.430Z,5.64
2022-10-10T02:40:01.088Z,5.64
2022-10-10T02:43:06.121Z,5.62
2022-10-10T02:46:11.784Z,5.59
2022-10-10T02:49:13.307Z,5.55
2022-10-10T02:52:16.322Z,5.54
2022-10-10T02:55:17.962Z,5.52
2022-10-10T02:58:19.607Z,5.52
2022-10-10T03:01:21.180Z,5.50
2022-10-10T03:04:23.004Z,5.48
2022-10-10T03:07:25.446Z,5.46
2022-10-10T03:10:26.995Z,5.43
2022-10-10T03:13:28.729Z,5.40
2022-10-10T03:16:30.368Z,5.37
2022-10-10T03:19:31.968Z,5.36
2022-10-10T03:22:33.571Z,5.34
2022-10-10T03:25:35.088Z,5.33
2022-10-10T03:28:38.204Z,5.31
2022-10-10T03:31:39.897Z,5.29
2022-10-10T03:34:41.452Z,5.27
2022-10-10T03:37:42.957Z,5.26
2022-10-10T03:40:45.388Z,5.25
2022-10-10T03:43:46.992Z,5.22
2022-10-10T03:46:48.525Z,5.22
2022-10-10T03:49:50.040Z,5.19
2022-10-10T03:52:51.875Z,5.17
2022-10-10T03:55:55.604Z,5.15
2022-10-10T03:59:00.637Z,5.13
2022-10-10T04:02:02.169Z,5.11
2022-10-10T04:05:04.829Z,5.10
2022-10-10T04:08:06.995Z,5.10
2022-10-10T04:11:08.721Z,5.08
2022-10-10T04:14:10.657Z,5.07
2022-10-10T04:17:12.249Z,5.04
2022-10-10T04:20:13.845Z,5.03
2022-10-10T04:23:15.582Z,5.02
2022-10-10T04:26:17.226Z,5.01
2022-10-10T04:29:18.725Z,5.00
2022-10-10T04:32:20.296Z,5.00
2022-10-10T04:35:22.075Z,4.98
2022-10-10T04:38:23.676Z,4.97
2022-10-10T04:41:25.653Z,4.97
2022-10-10T04:44:27.320Z,4.97
2022-10-10T04:47:29.096Z,5.38
2022-10-10T04:50:30.706Z,5.46
2022-10-10T04:53:32.384Z,5.41
2022-10-10T04:56:33.966Z,5.33
2022-10-10T04:59:35.509Z,5.28
2022-10-10T05:02:37.072Z,5.24
2022-10-10T05:05:39.588Z,5.18
2022-10-10T05:08:41.080Z,5.12
2022-10-10T05:11:42.616Z,5.10
2022-10-10T05:14:47.930Z,5.08
2022-10-10T05:17:49.771Z,5.05
2022-10-10T05:20:51.269Z,5.02
2022-10-10T05:23:52.798Z,5.00
2022-10-10T05:26:54.339Z,5.00
2022-10-10T05:29:56.227Z,4.99
2022-10-10T05:32:57.933Z,4.99
2022-10-10T05:36:11.896Z,4.99
2022-10-10T05:39:13.520Z,4.98
2022-10-10T05:42:16.000Z,4.98
2022-10-10T05:45:17.853Z,4.98
2022-10-10T05:48:19.709Z,4.97
2022-10-10T05:51:21.405Z,4.97
2022-10-10T05:54:23.549Z,4.96
2022-10-10T05:57:25.053Z,4.96
2022-10-10T06:00:26.898Z,4.97
2022-10-10T06:03:28.485Z,4.97
2022-10-10T06:06:30.260Z,4.98
2022-10-10T06:09:31.828Z,5.02
2022-10-10T06:12:33.353Z,5.07
2022-10-10T06:15:34.879Z,5.11
2022-10-10T06:18:36.481Z,5.15
2022-10-10T06:21:38.078Z,5.21
2022-10-10T06:24:39.580Z,5.28
2022-10-10T06:27:41.097Z,5.36
2022-10-10T06:30:44.188Z,5.44
2022-10-10T06:33:46.606Z,5.54
2022-10-10T06:36:50.741Z,5.62
2022-10-10T06:39:52.288Z,5.68
2022-10-10T06:42:54.558Z,5.77
2022-10-10T06:45:56.483Z,5.86
2022-10-10T06:48:58.036Z,5.93
2022-10-10T06:51:59.602Z,6.00
2022-10-10T06:55:01.097Z,6.08
2022-10-10T06:58:02.955Z,6.17
2022-10-10T07:01:04.744Z,6.23
2022-10-10T07:04:06.472Z,6.32
2022-10-10T07:07:08.013Z,6.39
2022-10-10T07:10:13.146Z,6.47
2022-10-10T07:13:15.503Z,6.53
2022-10-10T07:16:17.056Z,6.59
2022-10-10T07:19:19.152Z,6.64
2022-10-10T07:22:20.699Z,6.71
2022-10-10T07:25:22.220Z,6.76
2022-10-10T07:28:23.791Z,6.80
2022-10-10T07:31:25.341Z,6.86
2022-10-10T07:34:27.163Z,6.92
2022-10-10T07:37:28.761Z,6.99
2022-10-10T07:40:30.356Z,7.05
2022-10-10T07:43:31.983Z,7.11
2022-10-10T07:46:33.581Z,7.15
2022-10-10T07:49:35.162Z,7.21
2022-10-10T07:52:36.668Z,7.27
2022-10-10T07:55:42.884Z,7.33
2022-10-10T07:58:44.440Z,7.39
2022-10-10T08:01:46.012Z,7.45
2022-10-10T08:04:47.568Z,7.52
2022-10-10T08:07:49.328Z,7.58
2022-10-10T08:10:51.221Z,7.63
2022-10-10T08:13:52.815Z,7.70
2022-10-10T08:16:54.991Z,7.76
2022-10-10T08:19:56.601Z,7.83
2022-10-10T08:22:59.001Z,7.90
2022-10-10T08:26:02.432Z,7.98
2022-10-10T08:29:04.344Z,8.15
2022-10-10T08:32:05.871Z,8.32
2022-10-10T08:35:07.860Z,8.41
2022-10-10T08:38:09.418Z,8.49
2022-10-10T08:41:20.513Z,8.54
2022-10-10T08:44:43.703Z,8.61
2022-10-10T08:47:51.789Z,8.69
2022-10-10T08:51:02.494Z,8.77
2022-10-10T08:54:06.937Z,8.84
2022-10-10T08:57:22.623Z,8.93
2022-10-10T09:00:33.384Z,9.00
2022-10-10T09:03:42.436Z,9.10
2022-10-10T09:06:46.813Z,9.19
2022-10-10T09:10:03.503Z,9.30
2022-10-10T09:13:25.721Z,9.41
2022-10-10T09:16:45.689Z,9.51
2022-10-10T09:20:11.817Z,9.60
2022-10-10T09:23:19.309Z,9.70
2022-10-10T09:26:28.436Z,9.81
2022-10-10T09:29:43.927Z,9.93
2022-10-10T09:32:47.993Z,10.07
2022-10-10T09:35:52.081Z,10.34
2022-10-10T09:39:01.773Z,10.61
2022-10-10T09:42:09.874Z,10.82
2022-10-10T09:45:21.047Z,10.96
2022-10-10T09:48:29.460Z,11.09
2022-10-10T09:51:32.828Z,11.20
2022-10-10T09:54:34.388Z,11.26
2022-10-10T09:57:39.344Z,11.34
2022-10-10T10:00:40.977Z,11.41
2022-10-10T10:03:44.014Z,11.50
2022-10-10T10:06:51.955Z,11.60
2022-10-10T10:09:59.379Z,11.72
2022-10-10T10:13:01.282Z,11.84
2022-10-10T10:16:05.676Z,11.94
2022-10-10T10:19:34.828Z,12.03
2022-10-10T10:22:40.009Z,12.10
2022-10-10T10:25:41.604Z,12.18
2022-10-10T10:28:44.257Z,12.34
2022-10-10T10:31:48.932Z,12.52
2022-10-10T10:34:50.405Z,12.73
2022-10-10T10:38:16.130Z,12.94
2022-10-10T10:41:17.639Z,13.13
2022-10-10T10:44:28.031Z,13.34
2022-10-10T10:47:55.487Z,13.59
2022-10-10T10:51:11.293Z,13.80
2022-10-10T10:54:21.928Z,13.97
2022-10-10T10:57:36.875Z,14.08
2022-10-10T11:01:28.375Z,14.22
2022-10-10T11:05:20.702Z,14.37
2022-10-10T11:08:24.026Z,14.52
2022-10-10T11:11:59.713Z,14.63
2022-10-10T11:15:14.871Z,14.73
2022-10-10T11:18:31.043Z,14.87
2022-10-10T11:21:38.124Z,14.97
2022-10-10T11:25:08.985Z,15.02
2022-10-10T11:28:34.229Z,15.08
2022-10-10T11:31:57.808Z,15.13
2022-10-10T11:35:10.277Z,15.18
2022-10-10T11:38:11.853Z,15.24
2022-10-10T11:41:27.129Z,15.30
2022-10-10T11:44:36.710Z,15.36
2022-10-10T11:47:43.664Z,15.42
2022-10-10T11:50:49.762Z,15.51
2022-10-10T11:53:56.504Z,15.56
2022-10-10T11:57:03.447Z,15.57
2022-10-10T12:00:13.705Z,15.60
2022-10-10T12:03:15.408Z,15.63
2022-10-10T12:06:26.320Z,15.63
2022-10-10T12:09:38.592Z,15.59
2022-10-10T12:12:46.633Z,15.64
2022-10-10T12:15:51.283Z,15.75
2022-10-10T12:18:54.952Z,15.82
2022-10-10T12:22:05.639Z,15.80
2022-10-10T12:25:36.543Z,15.74
2022-10-10T12:29:01.829Z,15.69
2022-10-10T12:32:15.455Z,15.61
2022-10-10T12:35:32.082Z,15.58
2022-10-10T12:38:33.681Z,15.57
2022-10-10T12:41:56.300Z,15.58
2022-10-10T12:44:58.319Z,15.58
2022-10-10T12:48:19.835Z,15.59
2022-10-10T12:51:24.154Z,15.58
2022-10-10T12:54:30.415Z,15.59
2022-10-10T12:57:36.941Z,15.57
2022-10-10T13:00:44.724Z,15.57
2022-10-10T13:03:48.699Z,15.57
2022-10-10T13:06:54.487Z,15.55
2022-10-10T13:10:07.648Z,15.51
2022-10-10T13:13:20.729Z,15.45
2022-10-10T13:16:32.844Z,15.41
2022-10-10T13:19:42.060Z,15.39
2022-10-10T13:22:47.160Z,15.37
2022-10-10T13:25:49.059Z,15.33
2022-10-10T13:28:51.739Z,15.29
2022-10-10T13:31:55.438Z,15.23
2022-10-10T13:35:01.068Z,15.19
2022-10-10T13:38:02.803Z,15.18
2022-10-10T13:41:05.378Z,15.18
2022-10-10T13:44:14.268Z,15.18
2022-10-10T13:47:46.611Z,15.17
2022-10-10T13:51:10.824Z,15.12
2022-10-10T13:54:43.102Z,15.08
2022-10-10T13:57:44.844Z,15.02
2022-10-10T14:00:55.121Z,14.96
2022-10-10T14:04:06.907Z,14.89
2022-10-10T14:07:18.292Z,14.82
2022-10-10T14:10:27.645Z,14.75
2022-10-10T14:13:32.093Z,14.71
2022-10-10T14:16:33.840Z,14.66
2022-10-10T14:19:35.380Z,14.65
2022-10-10T14:22:36.960Z,14.66
2022-10-10T14:25:40.449Z,14.63
2022-10-10T14:28:42.643Z,14.57
2022-10-10T14:31:44.697Z,14.48
2022-10-10T14:34:46.876Z,14.43
2022-10-10T14:37:48.433Z,14.38
2022-10-10T14:40:51.332Z,14.33
2022-10-10T14:43:52.885Z,14.27
2022-10-10T14:46:54.397Z,14.16
2022-10-10T14:49:57.970Z,14.07
2022-10-10T14:52:59.591Z,13.99
2022-10-10T14:56:01.162Z,13.93
2022-10-10T14:59:02.845Z,13.88
2022-10-10T15:02:04.391Z,13.85
2022-10-10T15:05:06.124Z,13.79
2022-10-10T15:08:08.350Z,13.72
2022-10-10T15:11:15.891Z,13.65
2022-10-10T15:14:17.467Z,13.60
2022-10-10T15:17:19.100Z,13.49
2022-10-10T15:20:24.096Z,13.44
2022-10-10T15:23:27.033Z,13.37
2022-10-10T15:26:28.539Z,13.32
2022-10-10T15:29:30.075Z,13.25
2022-10-10T15:32:31.600Z,13.18
2022-10-10T15:35:50.600Z,13.12
2022-10-10T15:38:55.496Z,13.12
2022-10-10T15:41:57.789Z,13.19
2022-10-10T15:44:59.340Z,13.15
2022-10-10T15:48:00.903Z,13.09
2022-10-10T15:51:07.175Z,13.02
2022-10-10T15:54:08.843Z,12.93
2022-10-10T15:57:11.205Z,12.84
2022-10-10T16:00:15.582Z,12.75
2022-10-10T16:03:17.512Z,12.67
2022-10-10T16:06:21.703Z,12.61
2022-10-10T16:09:28.511Z,12.54
2022-10-10T16:12:30.656Z,12.48
2022-10-10T16:15:32.490Z,12.44
2022-10-10T16:18:40.169Z,12.35
2022-10-10T16:21:42.576Z,12.20
2022-10-10T16:24:58.205Z,12.08
2022-10-10T16:28:05.721Z,11.99
2022-10-10T16:31:09.622Z,11.93
2022-10-10T16:34:11.239Z,11.86
2022-10-10T16:37:12.869Z,11.80
2022-10-10T16:40:14.404Z,11.72
2022-10-10T16:43:17.256Z,11.69
2022-10-10T16:46:21.041Z,11.64
2022-10-10T16:49:23.418Z,11.61
2022-10-10T16:52:24.981Z,11.56
2022-10-10T16:55:26.507Z,11.54
2022-10-10T16:58:29.609Z,11.64
2022-10-10T17:01:31.614Z,11.60
2022-10-10T17:04:33.328Z,11.58
2022-10-10T17:07:36.170Z,11.56
2022-10-10T17:10:37.830Z,11.53
2022-10-10T17:13:39.388Z,11.51
2022-10-10T17:20:02.866Z,11.47
2022-10-10T17:23:04.398Z,11.45
2022-10-10T17:26:08.489Z,11.41
2022-10-10T17:29:10.204Z,11.39
2022-10-10T17:32:11.941Z,11.37
2022-10-10T17:35:13.515Z,11.35
2022-10-10T17:38:38.599Z,11.32
2022-10-10T17:41:37.992Z,11.25
2022-10-10T17:44:45.325Z,11.18
2022-10-10T17:47:50.569Z,11.15
2022-10-10T17:50:52.117Z,11.12
2022-10-10T17:53:53.739Z,11.09
2022-10-10T17:56:55.294Z,11.04
2022-10-10T17:59:56.837Z,10.99
2022-10-10T18:02:59.336Z,10.97
2022-10-10T18:06:12.671Z,10.94
2022-10-10T18:09:14.283Z,10.90
2022-10-10T18:12:15.832Z,10.86
2022-10-10T18:15:17.434Z,10.80
2022-10-10T18:18:19.169Z,10.74
2022-10-10T18:21:22.673Z,10.68
2022-10-10T18:24:24.242Z,10.60
2022-10-10T18:27:26.865Z,10.57
2022-10-10T18:30:29.903Z,10.54
2022-10-10T18:33:31.421Z,10.52
2022-10-10T18:36:36.387Z,10.48
2022-10-10T18:39:38.041Z,10.43
2022-10-10T18:42:40.325Z,10.41
2022-10-10T18:45:41.840Z,10.38
2022-10-10T18:48:44.684Z,10.37
2022-10-10T18:51:46.350Z,10.35
2022-10-10T18:54:51.928Z,10.33
2022-10-10T18:57:53.476Z,10.31
2022-10-10T19:01:03.162Z,10.26
2022-10-10T19:04:06.783Z,10.22
2022-10-10T19:07:08.378Z,10.18
2022-10-10T19:10:09.923Z,10.17
2022-10-10T19:13:11.860Z,10.14
2022-10-10T19:16:13.781Z,10.10
2022-10-10T19:19:18.200Z,10.07
2022-10-10T19:22:19.683Z,10.03
2022-10-10T19:25:21.255Z,9.98
2022-10-10T19:28:22.970Z,9.95
2022-10-10T19:31:26.739Z,9.92
2022-10-10T19:34:28.267Z,9.89
2022-10-10T19:37:29.811Z,9.87
2022-10-10T19:40:31.487Z,9.84
2022-10-10T19:43:33.432Z,9.81
2022-10-10T19:46:37.534Z,9.77
2022-10-10T19:49:39.682Z,9.74
2022-10-10T19:52:41.275Z,9.71
2022-10-10T19:55:44.092Z,9.69
2022-10-10T19:58:45.634Z,9.65
2022-10-10T20:01:47.274Z,9.61
2022-10-10T20:04:48.896Z,9.58
2022-10-10T20:07:51.165Z,9.55
2022-10-10T20:10:53.938Z,9.52
2022-10-10T20:13:55.995Z,9.49
2022-10-10T20:16:57.722Z,9.46
2022-10-10T20:19:59.303Z,9.45
2022-10-10T20:23:01.861Z,9.43
2022-10-10T20:26:09.132Z,9.43
2022-10-10T20:29:10.975Z,9.41
2022-10-10T20:32:12.527Z,9.39
2022-10-10T20:35:14.582Z,9.33
2022-10-10T20:38:16.200Z,9.27
2022-10-10T20:41:17.746Z,9.26
2022-10-10T20:44:19.342Z,9.24
2022-10-10T20:47:20.898Z,9.19
2022-10-10T20:50:22.641Z,9.16
2022-10-10T20:53:24.168Z,9.12
2022-10-10T20:56:28.080Z,9.08
2022-10-10T20:59:29.732Z,9.04
2022-10-10T21:02:31.309Z,9.02
2022-10-10T21:05:32.856Z,8.98
2022-10-10T21:08:34.711Z,8.97
2022-10-10T21:11:36.728Z,8.93
2022-10-10T21:14:38.405Z,8.89
2022-10-10T21:17:40.067Z,8.86
2022-10-10T21:20:41.589Z,8.82
2022-10-10T21:23:46.096Z,8.79
2022-10-10T21:26:49.185Z,8.75
2022-10-10T21:29:50.866Z,8.73
2022-10-10T21:32:52.380Z,8.72
2022-10-10T21:35:54.928Z,8.71
2022-10-10T21:38:57.553Z,8.68
2022-10-10T21:41:59.138Z,8.63
2022-10-10T21:45:00.656Z,8.59
2022-10-10T21:48:03.237Z,8.56
2022-10-10T21:51:05.241Z,8.52
2022-10-10T21:54:07.822Z,8.48
2022-10-10T21:57:09.917Z,8.45
2022-10-10T22:00:11.927Z,8.40
2022-10-10T22:03:13.564Z,8.36
2022-10-10T22:06:17.946Z,8.31
2022-10-10T22:09:19.499Z,8.28
2022-10-10T22:12:21.037Z,8.24
2022-10-10T22:15:22.605Z,8.19
2022-10-10T22:18:25.053Z,8.15
2022-10-10T22:21:30.843Z,8.10
2022-10-10T22:24:32.445Z,8.06
2022-10-10T22:27:34.047Z,8.01
2022-10-10T22:30:35.615Z,7.97
2022-10-10T22:33:37.615Z,7.92
2022-10-10T22:36:39.221Z,7.87
2022-10-10T22:39:40.753Z,7.80
2022-10-10T22:42:42.288Z,7.76
2022-10-10T22:45:44.673Z,7.70
2022-10-10T22:48:46.305Z,7.65
2022-10-10T22:51:47.902Z,7.62
2022-10-10T22:54:49.451Z,7.57
2022-10-10T22:57:50.999Z,7.54
2022-10-10T23:00:52.961Z,7.50
2022-10-10T23:04:00.583Z,7.47
2022-10-10T23:07:02.365Z,7.41
2022-10-10T23:10:04.541Z,7.38
2022-10-10T23:13:06.250Z,7.37
2022-10-10T23:16:08.664Z,7.35
2022-10-10T23:19:10.641Z,7.33
2022-10-10T23:22:12.908Z,7.31
2022-10-10T23:25:14.480Z,7.30
2022-10-10T23:28:16.791Z,7.27
2022-10-10T23:31:19.033Z,7.26
2022-10-10T23:34:20.644Z,7.24
2022-10-10T23:37:23.511Z,7.23
2022-10-10T23:40:26.120Z,7.22
2022-10-10T23:43:27.722Z,7.19
2022-10-10T23:46:29.229Z,7.18
2022-10-10T23:49:30.968Z,7.17
2022-10-10T23:52:32.529Z,7.15
2022-10-10T23:55:34.892Z,7.12
2022-10-10T23:58:36.667Z,7.10
